Leixlip, Ireland
Current Conditions -  °F | °C
As of 1:00 PM on Thursday 30 Oct 2014 (Local Time) from EIME Reporting Station
Broken Clouds Broken Clouds  
Wind Chill: 61°   Ceiling: 2200
Heat Index: 61°   Visibility: 6mi
Dew Point: 55°   Wind: 15mph
Humidity: 82%   Direction: 210°SSW
Pressure: 29.85"   Gusts: NA
Location:  53.37°N, 6.49°W
Report Text: EIME 301300Z 21013KT 9999 FEW015 BKN022 BKN090 16/13 Q1011
Loading
Personal Weather Stations






























Interactive Weather Map
Tropical Storm Tracking
New forecast layout! Learn more

10-Day Weather Forecast

Advertisements
Track Severe Weather on mobile